Sar-01 — UUAV2 — position and weather

sailwx.info

Track history (hours):
 
Tides and Currents Weather Stations Pressure Air Temp Water Temp Dewpoint Dewpoint Depression Visibility Wind Speed Wind Dir Waves Ship Positions

Sar-01

Last reported at 2016-Sep-13 20:30 UTC. Time now 2016-Sep-28 23:56 UTC.
Position N 46°21' E 030°42'.
Warning: this ship's position is 15 days out of date.

Length 16 m; draft 0.9 m.

Type: SAR. MMSI: 272682000.

Date/timePositionNaut miles runAvg speedWind from/ knotsBaromVisibWave heightAir tempDewpointWater temp
2016-Sep-13 20:30N 46°21' E 030°42'0 0.0
2016-Sep-13 18:33N 46°21' E 030°42'0 0.0
2016-Sep-13 17:33N 46°21' E 030°42'0 0.0
2016-Sep-13 16:24N 46°21' E 030°42'  
2016-Sep-08 11:31N 46°29' E 030°52'11 1.5
2016-Sep-08 04:27N 46°21' E 030°42'6 0.4
2016-Sep-07 12:13N 46°26' E 030°47'710.8
2016-Sep-07 11:33N 46°33' E 030°49'13 0.4
2016-Sep-06 01:33N 46°21' E 030°42'0 0.0
2016-Sep-06 00:19N 46°21' E 030°42'0 0.0
2016-Sep-05 18:24N 46°21' E 030°42'0 0.0
2016-Sep-05 17:33N 46°21' E 030°42'2 1.9
2016-Sep-05 16:33N 46°19' E 030°40'1414.5
2016-Sep-05 15:34N 46°30' E 030°54'8 3.8
2016-Sep-05 13:29N 46°36' E 031°01'9 9.8
2016-Sep-05 12:33N 46°33' E 030°49'0 0.0
2016-Sep-05 11:32N 46°33' E 030°49'0 0.0
2016-Sep-05 10:33N 46°33' E 030°49'0 0.0
2016-Sep-05 09:33N 46°33' E 030°49'0 0.0
2016-Sep-05 08:33N 46°33' E 030°49'0 0.0
2016-Sep-05 07:33N 46°33' E 030°49'0 0.0
2016-Sep-05 06:34N 46°33' E 030°49'7 3.5
2016-Sep-05 04:33N 46°34' E 030°59'0 0.3
2016-Sep-05 03:33N 46°34' E 030°59'0 0.4
2016-Sep-05 02:33N 46°34' E 030°58'1 0.7
2016-Sep-05 01:33N 46°33' E 030°58'1615.3
2016-Sep-05 00:29N 46°21' E 030°42'0 0.0
2016-Sep-04 22:07N 46°21' E 030°42'0 0.0
2016-Sep-04 21:33N 46°21' E 030°42'0 0.0
2016-Sep-04 20:23N 46°21' E 030°42'0 0.0
2016-Sep-04 19:31N 46°21' E 030°42'  
Track history (hours):
 
Tides and Currents Weather Stations Pressure Air Temp Water Temp Dewpoint Dewpoint Depression Visibility Wind Speed Wind Dir Waves Ship Positions

Sar-01

Last reported at 2016-Sep-13 20:30 UTC. Time now 2016-Sep-28 23:56 UTC.
Position N 46°21' E 030°42'.
Warning: this ship's position is 15 days out of date.

Length 16 m; draft 0.9 m.

Type: SAR. MMSI: 272682000.

Date/timePositionNaut miles runAvg speedWind from/ knotsBaromVisibWave heightAir tempDewpointWater temp
2016-Sep-13 20:30N 46°21' E 030°42'0 0.0
2016-Sep-13 18:33N 46°21' E 030°42'0 0.0
2016-Sep-13 17:33N 46°21' E 030°42'0 0.0
2016-Sep-13 16:24N 46°21' E 030°42'  
2016-Sep-08 11:31N 46°29' E 030°52'11 1.5
2016-Sep-08 04:27N 46°21' E 030°42'6 0.4
2016-Sep-07 12:13N 46°26' E 030°47'710.8
2016-Sep-07 11:33N 46°33' E 030°49'13 0.4
2016-Sep-06 01:33N 46°21' E 030°42'0 0.0
2016-Sep-06 00:19N 46°21' E 030°42'0 0.0
2016-Sep-05 18:24N 46°21' E 030°42'0 0.0
2016-Sep-05 17:33N 46°21' E 030°42'2 1.9
2016-Sep-05 16:33N 46°19' E 030°40'1414.5
2016-Sep-05 15:34N 46°30' E 030°54'8 3.8
2016-Sep-05 13:29N 46°36' E 031°01'9 9.8
2016-Sep-05 12:33N 46°33' E 030°49'0 0.0
2016-Sep-05 11:32N 46°33' E 030°49'0 0.0
2016-Sep-05 10:33N 46°33' E 030°49'0 0.0
2016-Sep-05 09:33N 46°33' E 030°49'0 0.0
2016-Sep-05 08:33N 46°33' E 030°49'0 0.0
2016-Sep-05 07:33N 46°33' E 030°49'0 0.0
2016-Sep-05 06:34N 46°33' E 030°49'7 3.5
2016-Sep-05 04:33N 46°34' E 030°59'0 0.3
2016-Sep-05 03:33N 46°34' E 030°59'0 0.4
2016-Sep-05 02:33N 46°34' E 030°58'1 0.7
2016-Sep-05 01:33N 46°33' E 030°58'1615.3
2016-Sep-05 00:29N 46°21' E 030°42'0 0.0
2016-Sep-04 22:07N 46°21' E 030°42'0 0.0
2016-Sep-04 21:33N 46°21' E 030°42'0 0.0
2016-Sep-04 20:23N 46°21' E 030°42'0 0.0
2016-Sep-04 19:31N 46°21' E 030°42'  

Dump ship's entire track history